Time;durP1;ratioP1;P1;durP2;ratioP2;P2;SDS_P1;SDS_P2;PMS_P1;PMS_P2;Temp;Humidity;BMP_temperature;BMP_pressure;BME280_temperature;BME280_humidity;BME280_pressure;Samples;Min_cycle;Max_cycle;Signal;HPM_P1;HPM_P2
2021/10/10 00:02:29;;;;;;;;;53.50;43.50;;;;;14.71;nan;101850.50;4778943;29;45469;-85
2021/10/10 00:05:00;;;;;;;;;56.33;47.67;;;;;14.55;nan;101852.91;4763966;29;45545;-85
2021/10/10 00:08:20;;;;;;;;;57.33;45.00;;;;;14.85;nan;101865.00;4794515;29;45465;-84
2021/10/10 00:11:13;;;;;;;;;55.50;43.75;;;;;14.94;nan;101883.88;4776791;29;45724;-84
2021/10/10 00:14:18;;;;;;;;;;;;;;;;;;;;;
2021/10/10 00:16:55;;;;;;;;;57.25;47.00;;;;;14.65;nan;101843.28;4831497;29;64012;-85
2021/10/10 00:20:01;;;;;;;;;58.00;46.00;;;;;14.69;nan;101887.06;4817656;29;46880;-85
2021/10/10 00:22:28;;;;;;;;;54.25;45.25;;;;;14.50;nan;101870.69;4835193;29;45479;-85
2021/10/10 00:25:10;;;;;;;;;;;;;;;;;;;;;
2021/10/10 00:28:23;;;;;;;;;;;;;;;;;;;;;
2021/10/10 00:31:58;;;;;;;;;;;;;;;;;;;;;
2021/10/10 00:35:02;;;;;;;;;;;;;;;;;;;;;
2021/10/10 00:38:12;;;;;;;;;;;;;;;;;;;;;
2021/10/10 00:40:59;;;;;;;;;57.25;43.50;;;;;14.44;nan;101838.47;4794760;29;64173;-85
2021/10/10 00:43:55;;;;;;;;;;;;;;;;;;;;;
2021/10/10 00:47:15;;;;;;;;;;;;;;;;;;;;;
2021/10/10 00:50:13;;;;;;;;;55.00;44.75;;;;;14.34;nan;101839.19;4741637;30;70363;-85
2021/10/10 00:53:15;;;;;;;;;58.25;45.25;;;;;14.33;nan;101834.72;4740751;30;45539;-86
2021/10/10 00:55:55;;;;;;;;;60.50;48.25;;;;;14.29;nan;101828.41;4740538;30;45387;-85
2021/10/10 01:01:52;;;;;;;;;;;;;;;;;;;;;
2021/10/10 01:04:27;;;;;;;;;59.50;46.75;;;;;14.23;nan;101846.16;4749192;30;65031;-83
2021/10/10 01:06:55;;;;;;;;;60.00;46.25;;;;;14.37;nan;101882.97;4748578;29;47109;-84
2021/10/10 01:09:23;;;;;;;;;62.75;46.50;;;;;14.03;nan;101844.03;4764375;29;45829;-84
2021/10/10 01:11:51;;;;;;;;;59.75;47.25;;;;;14.41;nan;101883.91;4788810;29;45430;-84
2021/10/10 01:14:41;;;;;;;;;;;;;;;;;;;;;
2021/10/10 01:17:22;;;;;;;;;53.50;45.50;;;;;14.09;nan;101860.19;4801343;29;74313;-83
2021/10/10 01:20:59;;;;;;;;;;;;;;;;;;;;;
2021/10/10 01:23:51;;;;;;;;;66.75;50.75;;;;;14.49;nan;101887.63;4802782;29;67989;-83
2021/10/10 01:26:20;;;;;;;;;59.50;49.25;;;;;14.01;nan;101832.41;4823395;29;45448;-83
2021/10/10 01:28:48;;;;;;;;;62.00;50.00;;;;;14.21;nan;101856.81;4844327;29;45728;-84
2021/10/10 01:38:06;;;;;;;;;61.25;49.75;;;;;14.21;nan;101871.09;4861430;29;45434;-83
2021/10/10 01:40:46;;;;;;;;;63.50;49.50;;;;;13.98;nan;101819.00;4843969;29;45278;-84
2021/10/10 01:43:14;;;;;;;;;62.50;48.75;;;;;13.94;nan;101830.50;4860784;29;44817;-83
2021/10/10 01:46:08;;;;;;;;;62.00;49.75;;;;;13.88;nan;101827.72;4844900;29;44871;-84
2021/10/10 01:49:07;;;;;;;;;;;;;;;;;;;;;
2021/10/10 01:52:07;;;;;;;;;;;;;;;;;;;;;
2021/10/10 01:55:11;;;;;;;;;;;;;;;;;;;;;
2021/10/10 01:58:27;;;;;;;;;;;;;;;;;;;;;
2021/10/10 02:00:58;;;;;;;;;60.75;50.25;;;;;13.96;nan;101836.78;4766905;29;64480;-83
2021/10/10 02:04:13;;;;;;;;;;;;;;;;;;;;;
2021/10/10 02:07:08;;;;;;;;;63.50;50.25;;;;;13.76;nan;101810.56;4767590;29;72647;-84
2021/10/10 02:09:52;;;;;;;;;61.00;45.75;;;;;13.72;nan;101803.38;4752200;29;45572;-84
2021/10/10 02:15:56;;;;;;;;;59.00;47.75;;;;;13.64;nan;101796.09;4767227;29;45673;-84
2021/10/10 02:18:32;;;;;;;;;61.00;48.75;;;;;13.70;nan;101798.88;4747893;29;45540;-84
2021/10/10 02:21:36;;;;;;;;;54.50;46.75;;;;;13.80;nan;101822.22;4752306;29;45291;-83
2021/10/10 02:24:19;;;;;;;;;62.00;48.00;;;;;13.95;nan;101861.72;4753060;29;45490;-83
2021/10/10 02:26:55;;;;;;;;;60.50;49.50;;;;;13.55;nan;101834.22;4782334;29;46902;-83
2021/10/10 02:29:38;;;;;;;;;;;;;;;;;;;;;
2021/10/10 02:32:07;;;;;;;;;59.75;46.50;;;;;13.60;nan;101867.31;4766727;29;67914;-83
2021/10/10 02:35:08;;;;;;;;;;;;;;;;;;;;;
2021/10/10 02:38:01;;;;;;;;;63.00;46.00;;;;;13.73;nan;101853.28;4805412;29;74358;-83
2021/10/10 02:40:36;;;;;;;;;60.00;50.00;;;;;13.62;nan;101838.81;4857940;29;45547;-83
2021/10/10 02:43:04;;;;;;;;;55.00;45.75;;;;;13.59;nan;101881.53;4858516;29;44750;-83
2021/10/10 02:45:50;;;;;;;;;56.33;47.00;;;;;13.65;nan;101838.88;4859141;29;44829;-83
2021/10/10 02:48:24;;;;;;;;;58.50;47.25;;;;;13.79;nan;101863.19;4858386;29;45649;-83
2021/10/10 02:52:10;;;;;;;;;62.75;50.25;;;;;13.71;nan;101849.69;4842393;29;45481;-83
2021/10/10 02:54:36;;;;;;;;;59.00;47.00;;;;;13.58;nan;101863.69;4784273;29;45909;-83
2021/10/10 02:57:04;;;;;;;;;55.33;44.00;;;;;13.73;nan;101863.06;4786702;29;45707;-83
2021/10/10 02:59:53;;;;;;;;;59.00;48.00;;;;;13.70;nan;101853.25;4787579;29;46079;-83
2021/10/10 03:02:22;;;;;;;;;58.50;48.25;;;;;13.54;nan;101868.06;4788082;29;45473;-82
2021/10/10 03:05:16;;;;;;;;;53.50;44.00;;;;;13.74;nan;101873.81;4773327;29;45469;-83
2021/10/10 03:07:45;;;;;;;;;52.67;44.00;;;;;13.54;nan;101844.03;4716543;29;45741;-82
2021/10/10 03:10:14;;;;;;;;;49.67;42.33;;;;;13.53;nan;101849.31;4715461;30;45381;-83
2021/10/10 03:12:52;;;;;;;;;58.00;48.00;;;;;13.35;nan;101824.06;4700098;30;45254;-83
2021/10/10 03:15:50;;;;;;;;;60.50;47.25;;;;;13.59;nan;101863.72;4715188;29;45897;-83
2021/10/10 03:18:29;;;;;;;;;;;;;;;;;;;;;
2021/10/10 03:22:25;;;;;;;;;;;;;;;;;;;;;
2021/10/10 03:25:24;;;;;;;;;58.00;45.00;;;;;13.23;nan;101812.16;4697288;30;45674;-82
2021/10/10 03:27:49;;;;;;;;;55.00;44.00;;;;;13.23;nan;101861.19;4697644;30;45619;-83
2021/10/10 03:30:15;;;;;;;;;54.00;44.00;;;;;13.32;nan;101871.19;4708924;29;45536;-83
2021/10/10 03:32:41;;;;;;;;;56.67;45.00;;;;;13.14;nan;101842.28;4716737;30;45408;-83
2021/10/10 03:35:10;;;;;;;;;55.33;44.67;;;;;13.23;nan;101845.16;4716290;30;44833;-83
2021/10/10 03:38:25;;;;;;;;;58.33;46.00;;;;;13.53;nan;101862.69;4733654;30;45542;-83
2021/10/10 03:40:53;;;;;;;;;56.67;46.00;;;;;13.20;nan;101853.09;4733699;30;45508;-83
2021/10/10 03:43:22;;;;;;;;;55.67;44.67;;;;;13.00;nan;101826.84;4741745;29;45726;-83
2021/10/10 03:46:15;;;;;;;;;;;;;;;;;;;;;
2021/10/10 03:55:33;;;;;;;;;55.00;43.25;;;;;13.09;nan;101822.56;4779377;29;45907;-83
2021/10/10 03:58:07;;;;;;;;;49.00;39.00;;;;;13.25;nan;101864.78;4788972;29;45509;-82
2021/10/10 04:00:34;;;;;;;;;49.00;40.50;;;;;13.13;nan;101872.53;4808270;29;44829;-83
2021/10/10 04:03:02;;;;;;;;;53.75;44.50;;;;;12.85;nan;101830.97;4846381;29;45437;-83
2021/10/10 04:08:53;;;;;;;;;51.67;43.33;;;;;13.16;nan;101853.88;4805363;29;44923;-83
2021/10/10 04:11:21;;;;;;;;;57.00;44.00;;;;;12.95;nan;101833.88;4804606;29;45568;-83
2021/10/10 04:14:04;;;;;;;;;54.00;43.33;;;;;12.98;nan;101828.56;4804041;29;44960;-82
2021/10/10 04:16:40;;;;;;;;;53.33;42.00;;;;;12.79;nan;101837.06;4789249;29;46999;-83
2021/10/10 04:22:29;;;;;;;;;55.33;44.67;;;;;13.09;nan;101870.63;4803567;29;45863;-83
2021/10/10 04:24:55;;;;;;;;;54.67;44.67;;;;;12.79;nan;101847.75;4788709;29;44777;-83
2021/10/10 04:27:37;;;;;;;;;50.67;41.00;;;;;12.97;nan;101855.28;4788999;29;47141;-83
2021/10/10 04:30:06;;;;;;;;;57.33;44.33;;;;;13.04;nan;101875.00;4789144;29;45489;-83
2021/10/10 04:33:08;;;;;;;;;53.75;44.00;;;;;13.10;nan;101875.13;4787630;29;45487;-83
2021/10/10 04:35:48;;;;;;;;;58.50;48.00;;;;;12.84;nan;101847.84;4803460;29;44866;-83
2021/10/10 04:38:44;;;;;;;;;;;;;;;;;;;;;
2021/10/10 04:41:10;;;;;;;;;57.50;46.25;;;;;12.91;nan;101881.84;4801599;29;72736;-83
2021/10/10 04:43:48;;;;;;;;;;;;;;;;;;;;;
2021/10/10 04:53:26;;;;;;;;;55.25;42.50;;;;;12.90;nan;101872.91;4803439;29;45421;-83
2021/10/10 05:03:00;;;;;;;;;57.00;46.25;;;;;12.77;nan;101887.75;4803772;29;45706;-84
2021/10/10 05:05:41;;;;;;;;;55.50;45.50;;;;;12.92;nan;101879.19;4789009;29;44780;-83
2021/10/10 05:08:48;;;;;;;;;;;;;;;;;;;;;
2021/10/10 05:11:26;;;;;;;;;56.00;45.75;;;;;12.90;nan;101875.56;4802546;29;66302;-83
2021/10/10 05:14:24;;;;;;;;;;;;;;;;;;;;;
2021/10/10 05:17:31;;;;;;;;;59.50;46.25;;;;;12.70;nan;101842.19;4880658;29;71964;-84
2021/10/10 05:20:26;;;;;;;;;;;;;;;;;;;;;
2021/10/10 05:22:52;;;;;;;;;61.00;46.00;;;;;12.55;nan;101862.31;4879053;29;64237;-83
2021/10/10 05:25:38;;;;;;;;;58.33;48.00;;;;;12.77;nan;101862.81;4878457;29;46843;-84
2021/10/10 05:28:39;;;;;;;;;;;;;;;;;;;;;
2021/10/10 05:31:08;;;;;;;;;57.25;45.75;;;;;12.71;nan;101866.25;4878233;29;67922;-83
2021/10/10 05:33:33;;;;;;;;;52.25;44.75;;;;;12.67;nan;101890.19;4876749;29;45426;-83
2021/10/10 05:35:59;;;;;;;;;49.00;42.33;;;;;12.37;nan;101837.88;4879097;28;46885;-84
2021/10/10 05:38:30;;;;;;;;;60.33;47.00;;;;;12.53;nan;101832.03;4893535;29;45124;-84
2021/10/10 05:41:02;;;;;;;;;57.00;43.33;;;;;12.72;nan;101872.47;4878551;29;45435;-84
2021/10/10 05:43:33;;;;;;;;;59.00;46.67;;;;;12.55;nan;101877.44;4877938;29;45501;-83
2021/10/10 05:46:06;;;;;;;;;58.25;45.75;;;;;12.43;nan;101843.34;4893825;29;46763;-84
2021/10/10 05:48:34;;;;;;;;;58.75;46.00;;;;;12.40;nan;101870.88;4877927;29;45451;-83
2021/10/10 05:51:21;;;;;;;;;;;;;;;;;;;;;
2021/10/10 05:54:45;;;;;;;;;;;;;;;;;;;;;
2021/10/10 06:00:48;;;;;;;;;;;;;;;;;;;;;
2021/10/10 06:03:21;;;;;;;;;67.00;50.75;;;;;12.59;nan;101909.56;4838256;29;68668;-84
2021/10/10 06:06:27;;;;;;;;;53.25;45.25;;;;;12.86;nan;101908.41;4823808;29;45513;-84
2021/10/10 06:09:11;;;;;;;;;63.25;47.75;;;;;12.51;nan;101860.44;4840120;29;45440;-82
2021/10/10 06:11:39;;;;;;;;;61.75;48.00;;;;;12.43;nan;101855.78;4823422;29;44989;-82
2021/10/10 06:14:23;;;;;;;;;61.50;51.00;;;;;12.48;nan;101873.72;4838429;29;46795;-83
2021/10/10 06:16:56;;;;;;;;;55.00;44.75;;;;;12.72;nan;101901.84;4823855;29;44847;-83
2021/10/10 06:19:35;;;;;;;;;62.75;47.75;;;;;12.71;nan;101892.06;4829759;29;47889;-83
2021/10/10 06:22:22;;;;;;;;;59.75;48.00;;;;;12.85;nan;101911.97;4830625;29;45596;-83
2021/10/10 06:24:50;;;;;;;;;59.75;49.00;;;;;12.73;nan;101911.69;4821221;29;45803;-83
2021/10/10 06:27:31;;;;;;;;;;;;;;;;;;;;;
2021/10/10 06:33:50;;;;;;;;;;;;;;;;;;;;;
2021/10/10 06:36:34;;;;;;;;;;;;;;;;;;;;;
2021/10/10 06:39:10;;;;;;;;;;;;;;;;;;;;;
2021/10/10 06:41:36;;;;;;;;;57.50;46.75;;;;;12.21;nan;101879.25;4863782;29;74549;-83
2021/10/10 06:44:03;;;;;;;;;55.50;44.00;;;;;12.21;nan;101885.47;4848191;29;45841;-83
2021/10/10 06:46:31;;;;;;;;;55.25;45.25;;;;;12.46;nan;101907.44;4864765;29;44840;-83
2021/10/10 06:49:02;;;;;;;;;57.50;45.75;;;;;12.63;nan;101925.66;4848546;29;45441;-84
2021/10/10 06:52:24;;;;;;;;;61.25;48.00;;;;;12.82;nan;101938.56;4866234;29;46723;-83
2021/10/10 06:54:58;;;;;;;;;58.25;45.75;;;;;12.78;nan;101937.59;4884455;29;44809;-83
2021/10/10 06:57:57;;;;;;;;;57.33;46.00;;;;;12.95;nan;101940.69;4869040;29;45497;-82
2021/10/10 07:00:33;;;;;;;;;;;;;;;;;;;;;
2021/10/10 07:03:06;;;;;;;;;57.75;47.75;;;;;12.79;nan;101925.16;4882978;29;74358;-83
2021/10/10 07:05:50;;;;;;;;;56.67;44.67;;;;;12.75;nan;101909.94;4882502;29;44701;-83
2021/10/10 07:08:29;;;;;;;;;59.00;45.67;;;;;12.74;nan;101876.09;4881134;29;44813;-83
2021/10/10 07:18:23;;;;;;;;;;;;;;;;;;;;;
2021/10/10 07:24:51;;;;;;;;;59.50;48.25;;;;;13.29;nan;101920.13;4806114;29;45498;-83
2021/10/10 07:37:46;;;;;;;;;57.00;47.75;;;;;13.85;nan;101937.28;4701004;30;45238;-84
2021/10/10 07:40:34;;;;;;;;;61.00;48.50;;;;;13.86;nan;101937.31;4682148;30;45977;-83
2021/10/10 07:43:42;;;;;;;;;61.25;47.25;;;;;13.79;nan;101905.97;4681102;30;44826;-83
2021/10/10 07:49:14;;;;;;;;;57.25;48.25;;;;;13.67;nan;101901.28;4698396;30;45564;-83
2021/10/10 07:51:40;;;;;;;;;60.33;47.33;;;;;13.70;nan;101897.78;4654633;30;45552;-83
2021/10/10 07:54:23;;;;;;;;;62.75;48.00;;;;;13.98;nan;101924.19;4651066;30;45480;-83
2021/10/10 07:57:03;;;;;;;;;59.67;48.33;;;;;14.04;nan;101960.84;4665464;30;45103;-83
2021/10/10 07:59:28;;;;;;;;;53.33;46.33;;;;;13.82;nan;101921.19;4664791;30;44874;-83
2021/10/10 08:02:17;;;;;;;;;62.25;48.00;;;;;14.07;nan;101933.25;4663780;30;47222;-83
2021/10/10 08:05:48;;;;;;;;;;;;;;;;;;;;;
2021/10/10 08:08:16;;;;;;;;;56.50;41.75;;;;;14.25;nan;101943.41;4664125;30;67040;-82
2021/10/10 08:11:30;;;;;;;;;;;;;;;;;;;;;
2021/10/10 08:14:08;;;;;;;;;56.75;48.50;;;;;14.39;nan;101917.78;4717168;30;74010;-82
2021/10/10 08:16:50;;;;;;;;;60.67;47.00;;;;;14.74;nan;101954.97;4735971;29;45536;-83
2021/10/10 08:19:42;;;;;;;;;;;;;;;;;;;;;
2021/10/10 08:22:23;;;;;;;;;57.50;47.00;;;;;14.93;nan;101962.44;4805846;29;65773;-83
2021/10/10 08:24:49;;;;;;;;;65.75;51.25;;;;;14.74;nan;101960.34;4831823;29;47000;-83
2021/10/10 08:27:27;;;;;;;;;;;;;;;;;;;;;
2021/10/10 08:30:34;;;;;;;;;;;;;;;;;;;;;
2021/10/10 08:33:28;;;;;;;;;56.33;47.00;;;;;14.77;nan;101934.50;4861204;29;64716;-83
2021/10/10 08:36:02;;;;;;;;;57.67;45.33;;;;;14.94;nan;101926.72;4860725;29;47230;-82
2021/10/10 08:38:45;;;;;;;;;56.00;45.00;;;;;14.88;nan;101918.59;4861628;29;45644;-82
2021/10/10 08:41:31;;;;;;;;;56.00;45.00;;;;;15.16;nan;101960.09;4879297;29;45553;-83
2021/10/10 08:44:20;;;;;;;;;57.33;48.00;;;;;15.34;nan;101955.88;4866301;29;45638;-83
2021/10/10 08:47:06;;;;;;;;;;;;;;;;;;;;;
2021/10/10 08:50:21;;;;;;;;;58.00;46.75;;;;;15.43;nan;101939.03;4879722;29;72917;-82
2021/10/10 08:53:10;;;;;;;;;;;;;;;;;;;;;
2021/10/10 09:02:41;;;;;;;;;57.50;45.75;;;;;15.28;nan;101943.31;4843823;29;45566;-82
2021/10/10 09:05:49;;;;;;;;;55.33;43.67;;;;;15.54;nan;101956.16;4841079;29;45587;-83
2021/10/10 09:15:43;;;;;;;;;;;;;;;;;;;;;
2021/10/10 09:22:17;;;;;;;;;;;;;;;;;;;;;
2021/10/10 09:28:27;;;;;;;;;58.75;46.00;;;;;15.75;nan;101958.25;4856884;29;45148;-83
2021/10/10 09:31:32;;;;;;;;;;;;;;;;;;;;;
2021/10/10 09:35:05;;;;;;;;;;;;;;;;;;;;;
2021/10/10 09:37:41;;;;;;;;;59.00;49.00;;;;;16.17;nan;102014.19;4819727;29;74678;-84
2021/10/10 09:42:51;;;;;;;;;57.00;46.00;;;;;16.03;nan;101956.78;4821582;29;45606;-83
2021/10/10 09:56:21;;;;;;;;;60.00;48.33;;;;;16.55;nan;101986.84;4759499;29;45532;-83
2021/10/10 09:59:26;;;;;;;;;58.67;48.33;;;;;16.55;nan;101994.00;4767336;29;45781;-83
2021/10/10 10:02:23;;;;;;;;;57.67;45.33;;;;;16.65;nan;101978.88;4768148;29;45362;-83
2021/10/10 10:05:01;;;;;;;;;;;;;;;;;;;;;
2021/10/10 10:07:33;;;;;;;;;60.75;49.75;;;;;16.59;nan;101945.69;4751952;29;66802;-83
2021/10/10 10:10:03;;;;;;;;;54.67;44.33;;;;;16.68;nan;101954.72;4765569;29;45858;-83
2021/10/10 10:15:54;;;;;;;;;57.75;47.00;;;;;16.66;nan;101964.53;4747728;30;45412;-83
2021/10/10 10:18:20;;;;;;;;;58.75;47.75;;;;;16.86;nan;101989.81;4748259;30;45445;-83
2021/10/10 10:21:04;;;;;;;;;53.25;44.00;;;;;16.82;nan;101950.38;4748878;30;44890;-82
2021/10/10 10:23:50;;;;;;;;;56.33;47.00;;;;;16.82;nan;101950.38;4748310;30;46861;-83
2021/10/10 10:30:03;;;;;;;;;53.00;42.00;;;;;17.02;nan;101945.16;4797346;29;45519;-83
2021/10/10 10:32:33;;;;;;;;;59.00;45.67;;;;;16.88;nan;101945.06;4783164;29;45671;-83
2021/10/10 10:35:32;;;;;;;;;;;;;;;;;;;;;
2021/10/10 10:38:10;;;;;;;;;58.25;46.75;;;;;17.03;nan;101951.41;4780334;29;72649;-83
2021/10/10 10:41:02;;;;;;;;;57.33;46.00;;;;;17.31;nan;101974.94;4768317;29;45497;-83
2021/10/10 10:43:36;;;;;;;;;53.33;43.33;;;;;17.43;nan;102000.06;4772195;29;45514;-83
2021/10/10 10:46:24;;;;;;;;;;;;;;;;;;;;;
2021/10/10 10:49:01;;;;;;;;;56.00;44.00;;;;;17.50;nan;101999.22;4766694;29;72021;-83
2021/10/10 10:52:26;;;;;;;;;56.00;44.67;;;;;17.69;nan;102001.09;4765889;29;45508;-82
2021/10/10 10:55:01;;;;;;;;;50.33;39.00;;;;;17.33;nan;101954.31;4804022;29;45561;-83
2021/10/10 10:57:43;;;;;;;;;47.00;39.33;;;;;17.80;nan;101995.78;4802496;29;47781;-82
2021/10/10 11:00:33;;;;;;;;;48.67;42.00;;;;;17.95;nan;101992.28;4803068;29;45591;-83
2021/10/10 11:06:36;;;;;;;;;;;;;;;;;;;;;
2021/10/10 11:09:08;;;;;;;;;39.33;35.00;;;;;18.13;nan;101965.41;4765883;29;74237;-82
2021/10/10 11:12:07;;;;;;;;;38.00;35.00;;;;;18.07;nan;101934.91;4766225;29;45571;-82
2021/10/10 11:24:54;;;;;;;;;33.67;31.67;;;;;18.43;nan;101974.47;4786828;29;45592;-82
2021/10/10 11:30:36;;;;;;;;;30.00;27.67;;;;;18.18;nan;101936.72;4788886;29;44892;-82
2021/10/10 11:33:02;;;;;;;;;36.33;34.33;;;;;18.29;nan;101927.75;4770577;29;46548;-82
2021/10/10 11:35:42;;;;;;;;;34.33;32.33;;;;;18.60;nan;101942.13;4786623;29;44819;-83
2021/10/10 11:38:09;;;;;;;;;34.33;29.67;;;;;18.48;nan;101934.97;4786827;29;44942;-83
2021/10/10 11:40:57;;;;;;;;;32.67;31.33;;;;;19.03;nan;101968.19;4788075;29;45589;-82
2021/10/10 11:43:25;;;;;;;;;30.33;30.00;;;;;18.92;nan;101968.22;4819411;29;45463;-82
2021/10/10 11:46:13;;;;;;;;;;;;;;;;;;;;;
2021/10/10 11:48:39;;;;;;;;;27.67;25.33;;;;;18.77;nan;101948.41;4842220;29;68580;-81
2021/10/10 11:55:24;;;;;;;;;29.67;29.67;;;;;19.15;nan;101965.50;4821821;29;45238;-83
2021/10/10 11:58:03;;;;;;;;;29.00;28.00;;;;;19.10;nan;101930.44;4822102;29;45446;-83
2021/10/10 12:00:38;;;;;;;;;33.67;31.33;;;;;19.31;nan;101951.06;4823199;29;45463;-83
2021/10/10 12:03:22;;;;;;;;;30.00;26.00;;;;;19.23;nan;101925.00;4822695;29;45453;-83
2021/10/10 12:05:54;;;;;;;;;38.33;34.00;;;;;19.53;nan;101956.38;4822393;29;47511;-83
2021/10/10 12:08:23;;;;;;;;;30.33;30.33;;;;;19.37;nan;101915.09;4821939;29;45851;-82
2021/10/10 12:10:49;;;;;;;;;30.00;26.33;;;;;19.55;nan;101955.50;4807846;29;45460;-83
2021/10/10 12:14:07;;;;;;;;;37.00;31.67;;;;;19.62;nan;101918.56;4822590;29;45637;-83
2021/10/10 12:16:56;;;;;;;;;;;;;;;;;;;;;
2021/10/10 12:19:45;;;;;;;;;34.67;32.00;;;;;19.83;nan;101952.69;4767570;29;71153;-82
2021/10/10 12:25:42;;;;;;;;;36.00;32.00;;;;;19.69;nan;101896.06;4762044;29;45041;-83
2021/10/10 12:29:02;;;;;;;;;;;;;;;;;;;;;
2021/10/10 12:31:36;;;;;;;;;32.33;31.67;;;;;19.94;nan;101931.06;4726007;30;71667;-83
2021/10/10 12:37:31;;;;;;;;;37.67;32.00;;;;;19.74;nan;101898.75;4731393;30;45810;-83
2021/10/10 12:40:03;;;;;;;;;26.00;25.67;;;;;19.77;nan;101909.53;4715745;30;46989;-83
2021/10/10 12:42:50;;;;;;;;;32.33;28.33;;;;;19.78;nan;101909.53;4716932;29;45585;-82
2021/10/10 12:45:37;;;;;;;;;40.00;34.00;;;;;19.50;nan;101911.44;4720367;30;44854;-82
2021/10/10 12:48:10;;;;;;;;;36.67;34.67;;;;;19.50;nan;101888.94;4749670;30;45575;-83
2021/10/10 12:51:11;;;;;;;;;;;;;;;;;;;;;
2021/10/10 12:54:32;;;;;;;;;37.33;31.33;;;;;19.70;nan;101926.66;4744706;30;71990;-83
2021/10/10 12:57:42;;;;;;;;;;;;;;;;;;;;;
2021/10/10 13:00:25;;;;;;;;;41.00;34.67;;;;;19.31;nan;101897.13;4714674;30;65062;-83
2021/10/10 13:02:54;;;;;;;;;43.00;36.00;;;;;19.41;nan;101918.66;4700615;30;45293;-82
2021/10/10 13:05:20;;;;;;;;;38.33;34.33;;;;;19.15;nan;101893.56;4745370;29;45421;-82
2021/10/10 13:07:47;;;;;;;;;33.33;32.33;;;;;19.31;nan;101924.09;4769653;29;44781;-83
2021/10/10 13:10:13;;;;;;;;;40.67;35.33;;;;;19.17;nan;101882.78;4770876;29;44814;-83
2021/10/10 13:13:28;;;;;;;;;40.00;36.33;;;;;19.57;nan;101912.28;4768801;29;45788;-83
2021/10/10 13:16:01;;;;;;;;;33.33;32.00;;;;;19.55;nan;101906.00;4767548;29;44892;-83
2021/10/10 13:18:39;;;;;;;;;;;;;;;;;;;;;
2021/10/10 13:21:15;;;;;;;;;34.67;32.00;;;;;19.45;nan;101910.56;4767102;29;66123;-82
2021/10/10 13:23:50;;;;;;;;;35.67;32.00;;;;;19.33;nan;101895.31;4768003;29;47170;-83
2021/10/10 13:26:21;;;;;;;;;38.00;32.00;;;;;19.18;nan;101868.41;4768869;29;44816;-83
2021/10/10 13:29:25;;;;;;;;;;;;;;;;;;;;;
2021/10/10 13:49:42;;;;;;;;;;;;;;;;;;;;;
2021/10/10 14:03:24;;;;;;;;;;;;;;;;;;;;;
2021/10/10 14:25:04;;;;;;;;;38.00;34.00;;;;;19.90;nan;101888.78;4641640;30;45891;-83
2021/10/10 14:38:03;;;;;;;;;42.00;37.33;;;;;19.67;nan;101841.16;4622395;30;45455;-84
2021/10/10 14:40:32;;;;;;;;;47.00;37.00;;;;;19.54;nan;101834.06;4606614;30;46183;-84
2021/10/10 14:47:00;;;;;;;;;;;;;;;;;;;;;
2021/10/10 14:53:19;;;;;;;;;41.33;36.00;;;;;20.10;nan;101840.03;4676208;30;44909;-84
2021/10/10 14:59:38;;;;;;;;;47.00;37.33;;;;;20.48;nan;101880.25;4659541;30;45455;-83
2021/10/10 15:02:04;;;;;;;;;41.00;34.67;;;;;20.16;nan;101870.59;4725884;30;45625;-83
2021/10/10 15:05:47;;;;;;;;;;;;;;;;;;;;;
2021/10/10 15:08:28;;;;;;;;;43.33;37.67;;;;;20.18;nan;101848.97;4742405;30;74496;-82
2021/10/10 15:10:56;;;;;;;;;43.67;35.00;;;;;20.19;nan;101881.34;4756626;29;45911;-83
2021/10/10 15:17:03;;;;;;;;;42.33;37.33;;;;;20.11;nan;101867.00;4781017;29;45461;-84
2021/10/10 15:19:47;;;;;;;;;40.00;33.67;;;;;19.95;nan;101847.31;4787602;29;45576;-84
2021/10/10 15:22:13;;;;;;;;;37.00;35.00;;;;;19.87;nan;101850.97;4764994;29;46014;-85
2021/10/10 15:25:03;;;;;;;;;42.67;36.00;;;;;19.88;nan;101831.19;4803269;29;45486;-83
2021/10/10 15:34:35;;;;;;;;;30.00;28.00;;;;;19.75;nan;101828.59;4763053;29;46588;-83
2021/10/10 15:37:07;;;;;;;;;39.67;35.00;;;;;19.72;nan;101830.41;4869624;29;45355;-83
2021/10/10 15:39:46;;;;;;;;;47.33;36.00;;;;;19.85;nan;101863.59;4868195;29;45601;-84
2021/10/10 15:42:23;;;;;;;;;45.33;38.00;;;;;19.80;nan;101874.44;4838378;29;46602;-83
2021/10/10 15:52:16;;;;;;;;;40.67;36.33;;;;;19.66;nan;101866.38;4855891;29;45522;-83
2021/10/10 15:54:45;;;;;;;;;38.67;34.00;;;;;19.45;nan;101871.88;4854280;29;45577;-84
2021/10/10 15:57:30;;;;;;;;;;;;;;;;;;;;;
2021/10/10 16:00:14;;;;;;;;;42.00;35.00;;;;;19.35;nan;101847.66;4855325;29;68125;-84
2021/10/10 16:02:52;;;;;;;;;43.00;37.00;;;;;19.29;nan;101847.69;4856299;29;45381;-84
2021/10/10 16:05:24;;;;;;;;;27.00;25.00;;;;;19.47;nan;101859.28;4839118;29;46987;-84
2021/10/10 16:08:38;;;;;;;;;;;;;;;;;;;;;
2021/10/10 16:11:18;;;;;;;;;;;;;;;;;;;;;
2021/10/10 16:14:50;;;;;;;;;38.67;34.67;;;;;19.59;nan;101891.59;4853325;29;65265;-84
2021/10/10 16:17:27;;;;;;;;;39.67;36.00;;;;;19.24;nan;101841.41;4801248;29;45816;-84
2021/10/10 16:20:24;;;;;;;;;40.33;34.67;;;;;19.25;nan;101874.66;4799029;29;45484;-84
2021/10/10 16:23:02;;;;;;;;;;;;;;;;;;;;;
2021/10/10 16:50:06;;;;;;;;;49.33;40.33;;;;;19.14;nan;101889.06;4746623;29;44868;-84
2021/10/10 16:53:14;;;;;;;;;;;;;;;;;;;;;
2021/10/10 16:55:56;;;;;;;;;48.00;38.33;;;;;18.93;nan;101872.97;4779178;29;44944;-84
2021/10/10 17:02:35;;;;;;;;;49.33;39.00;;;;;18.75;nan;101879.25;4782083;29;45940;-84
2021/10/10 17:05:34;;;;;;;;;52.00;39.67;;;;;18.43;nan;101877.50;4747893;29;45583;-85
2021/10/10 17:08:00;;;;;;;;;48.00;40.67;;;;;18.51;nan;101896.34;4760466;29;47005;-84
2021/10/10 17:23:03;;;;;;;;;;;;;;;;;;;;;
2021/10/10 17:30:16;;;;;;;;;;;;;;;;;;;;;
2021/10/10 17:53:38;;;;;;;;;56.00;44.67;;;;;17.75;nan;101927.59;4777416;29;44839;-84
2021/10/10 18:20:35;;;;;;;;;;;;;;;;;;;;;
2021/10/10 18:23:28;;;;;;;;;;;;;;;;;;;;;
2021/10/10 18:25:54;;;;;;;;;61.50;50.50;;;;;17.32;nan;101931.00;4872316;29;71533;-84
2021/10/10 18:41:55;;;;;;;;;58.25;47.25;;;;;17.65;nan;101966.13;4876651;28;45434;-82
2021/10/10 18:45:28;;;;;;;;;65.50;50.75;;;;;17.57;nan;101960.69;4875514;29;45254;-83
2021/10/10 18:48:47;;;;;;;;;60.00;47.75;;;;;17.58;nan;101975.97;4798844;29;45541;-83
2021/10/10 18:51:52;;;;;;;;;;;;;;;;;;;;;
2021/10/10 18:54:52;;;;;;;;;;;;;;;;;;;;;
2021/10/10 18:57:44;;;;;;;;;65.25;51.50;;;;;17.22;nan;101934.53;4744661;30;65654;-83
2021/10/10 19:00:10;;;;;;;;;64.67;50.00;;;;;17.26;nan;101979.38;4740637;30;45630;-82
2021/10/10 19:02:40;;;;;;;;;61.75;50.50;;;;;17.12;nan;101959.56;4727002;30;45576;-84
2021/10/10 19:05:36;;;;;;;;;63.50;51.50;;;;;17.30;nan;101956.97;4741461;30;44930;-82
2021/10/10 19:08:26;;;;;;;;;63.25;50.25;;;;;17.43;nan;101981.25;4742993;30;45558;-83
2021/10/10 19:22:14;;;;;;;;;;;;;;;;;;;;;
2021/10/10 19:28:21;;;;;;;;;71.25;57.00;;;;;17.17;nan;101979.31;4744677;30;45422;-83
2021/10/10 19:31:32;;;;;;;;;66.25;51.75;;;;;17.03;nan;101964.84;4745131;29;45369;-83
2021/10/10 19:48:06;;;;;;;;;75.75;62.00;;;;;16.60;nan;101949.28;5170730;23;46565;-84
2021/10/10 19:50:56;;;;;;;;;;;;;;;;;;;;;
2021/10/10 19:53:24;;;;;;;;;70.00;56.25;;;;;16.38;nan;101958.91;4870752;28;67371;-84
2021/10/10 19:56:59;;;;;;;;;;;;;;;;;;;;;
2021/10/10 20:06:07;;;;;;;;;;;;;;;;;;;;;
2021/10/10 20:08:54;;;;;;;;;79.25;60.50;;;;;16.33;nan;101968.72;4815200;29;64818;-83
2021/10/10 20:11:23;;;;;;;;;81.25;58.50;;;;;16.26;nan;101999.06;4815627;29;45371;-84
2021/10/10 20:21:25;;;;;;;;;;;;;;;;;;;;;
2021/10/10 20:24:43;;;;;;;;;;;;;;;;;;;;;
2021/10/10 20:27:38;;;;;;;;;78.50;65.25;;;;;16.40;nan;102033.25;4873048;28;73388;-84
2021/10/10 20:30:34;;;;;;;;;79.00;65.75;;;;;16.13;nan;101996.25;4862296;29;45548;-84
2021/10/10 20:33:09;;;;;;;;;77.00;64.00;;;;;15.80;nan;101978.88;4872888;29;44956;-84
2021/10/10 20:36:13;;;;;;;;;78.25;65.00;;;;;16.12;nan;102010.56;4873228;29;47795;-84
2021/10/10 20:39:28;;;;;;;;;78.75;64.50;;;;;16.20;nan;102035.72;4839089;29;45518;-84
2021/10/10 20:41:54;;;;;;;;;75.25;61.75;;;;;15.93;nan;102030.00;4830888;29;44845;-84
2021/10/10 20:45:14;;;;;;;;;77.25;61.50;;;;;16.19;nan;102043.75;4855698;29;45449;-84
2021/10/10 21:02:22;;;;;;;;;81.75;62.25;;;;;15.72;nan;102010.06;4690527;30;45438;-84
2021/10/10 21:20:19;;;;;;;;;76.25;59.25;;;;;15.74;nan;102023.50;4867755;29;45400;-83
2021/10/10 21:25:56;;;;;;;;;73.00;57.00;;;;;15.96;nan;102048.84;4862345;29;45815;-84